Time;durP1;ratioP1;P1;durP2;ratioP2;P2;SDS_P1;SDS_P2;PMS_P1;PMS_P2;Temp;Humidity;BMP_temperature;BMP_pressure;BME280_temperature;BME280_humidity;BME280_pressure;Samples;Min_cycle;Max_cycle;Signal;HPM_P1;HPM_P2
2023/07/02 00:01:07;;;;;;;;;;;;;;;-144.86;100.00;65694.16;5024733;28;19933;-62
2023/07/02 00:03:35;;;;;;;;;;;;;;;-144.86;100.00;65694.16;5026443;28;19981;-62
2023/07/02 00:06:04;;;;;;;;;;;;;;;-144.86;100.00;65694.16;5016972;28;19925;-61
2023/07/02 00:08:32;;;;;;;;;;;;;;;-144.86;100.00;65694.16;5024855;28;19929;-62
2023/07/02 00:11:00;;;;;;;;;;;;;;;-144.86;100.00;65694.16;5019283;28;20367;-62
2023/07/02 00:13:28;;;;;;;;;;;;;;;-144.86;100.00;65694.16;5024003;28;19925;-61
2023/07/02 00:15:56;;;;;;;;;;;;;;;-144.86;100.00;65694.16;5020207;28;20544;-62
2023/07/02 00:18:28;;;;;;;;;;;;;;;-144.86;100.00;65694.16;5020086;28;19975;-62
2023/07/02 00:20:56;;;;;;;;;;;;;;;-144.86;100.00;65694.16;5019958;28;19929;-61
2023/07/02 00:23:25;;;;;;;;;;;;;;;-144.86;100.00;65694.16;5015115;28;20426;-62
2023/07/02 00:25:53;;;;;;;;;;;;;;;-144.86;100.00;65694.16;5019999;28;19976;-62
2023/07/02 00:28:21;;;;;;;;;;;;;;;-144.86;100.00;65694.16;5023212;28;20378;-62
2023/07/02 00:30:49;;;;;;;;;;;;;;;-144.86;100.00;65694.16;5029435;28;19929;-62
2023/07/02 00:33:17;;;;;;;;;;;;;;;-144.86;100.00;65694.16;5023972;28;19936;-62
2023/07/02 00:35:47;;;;;;;;;;;;;;;-144.86;100.00;65694.16;5023796;28;19926;-61
2023/07/02 00:38:14;;;;;;;;;;;;;;;-144.86;100.00;65694.16;5027530;28;19987;-62
2023/07/02 00:40:44;;;;;;;;;;;;;;;-144.86;100.00;65694.16;5015508;28;19933;-61
2023/07/02 00:43:13;;;;;;;;;;;;;;;-144.86;100.00;65694.16;5013521;28;19925;-61
2023/07/02 00:45:41;;;;;;;;;;;;;;;-144.86;100.00;65694.16;5009046;28;20440;-62
2023/07/02 00:48:09;;;;;;;;;;;;;;;-144.86;100.00;65694.16;4995672;28;20414;-61
2023/07/02 00:50:36;;;;;;;;;;;;;;;-144.86;100.00;65694.16;5034472;28;19964;-62
2023/07/02 00:53:04;;;;;;;;;;;;;;;-144.86;100.00;65694.16;5010913;28;19965;-65
2023/07/02 00:55:32;;;;;;;;;;;;;;;-144.86;100.00;65694.16;5028055;28;20031;-61
2023/07/02 00:58:01;;;;;;;;;;;;;;;-144.86;100.00;65694.16;5018680;28;19925;-62
2023/07/02 01:00:30;;;;;;;;;;;;;;;-144.86;100.00;65694.16;5012741;28;20375;-61
2023/07/02 01:03:00;;;;;;;;;;;;;;;-144.86;100.00;65694.16;5009625;28;19969;-63
2023/07/02 01:05:35;;;;;;;;;;;;;;;-144.86;100.00;65694.16;5011332;28;20286;-62
2023/07/02 01:08:03;;;;;;;;;;;;;;;-144.86;100.00;65694.16;5022523;28;19930;-62
2023/07/02 01:10:32;;;;;;;;;;;;;;;-144.86;100.00;65694.16;5024816;28;20321;-63
2023/07/02 01:13:02;;;;;;;;;;;;;;;-144.86;100.00;65694.16;5020593;28;19931;-62
2023/07/02 01:15:30;;;;;;;;;;;;;;;-144.86;100.00;65694.16;5019910;28;19925;-62
2023/07/02 01:17:58;;;;;;;;;;;;;;;-144.86;100.00;65694.16;5009004;28;20285;-62
2023/07/02 01:20:30;;;;;;;;;;;;;;;-144.86;100.00;65694.16;5014540;28;19925;-61
2023/07/02 01:23:02;;;;;;;;;;;;;;;-144.86;100.00;65694.16;5026964;28;19979;-63
2023/07/02 01:25:30;;;;;;;;;;;;;;;-144.86;100.00;65694.16;5019842;28;20358;-61
2023/07/02 01:27:58;;;;;;;;;;;;;;;-144.86;100.00;65694.16;5012569;28;19972;-65
2023/07/02 01:30:26;;;;;;;;;;;;;;;-144.86;100.00;65694.16;5022216;28;20370;-61
2023/07/02 01:32:54;;;;;;;;;;;;;;;-144.86;100.00;65694.16;5012927;28;19964;-61
2023/07/02 01:35:22;;;;;;;;;;;;;;;-144.86;100.00;65694.16;5002726;28;20150;-63
2023/07/02 01:37:52;;;;;;;;;;;;;;;-144.86;100.00;65694.16;5013504;28;20372;-64
2023/07/02 01:40:19;;;;;;;;;;;;;;;-144.86;100.00;65694.16;5026495;28;20329;-62
2023/07/02 01:42:47;;;;;;;;;;;;;;;-144.86;100.00;65694.16;5027806;28;20366;-62
2023/07/02 01:45:15;;;;;;;;;;;;;;;-144.86;100.00;65694.16;5005516;28;19960;-61
2023/07/02 01:47:42;;;;;;;;;;;;;;;-144.86;100.00;65694.16;5024818;28;19925;-61
2023/07/02 01:50:10;;;;;;;;;;;;;;;-144.86;100.00;65694.16;5024260;28;19925;-62
2023/07/02 01:52:38;;;;;;;;;;;;;;;-144.86;100.00;65694.16;5004840;28;20343;-61
2023/07/02 01:55:08;;;;;;;;;;;;;;;-144.86;100.00;65694.16;5016261;28;20345;-62
2023/07/02 01:57:36;;;;;;;;;;;;;;;-144.86;100.00;65694.16;5006068;28;20243;-61
2023/07/02 02:00:04;;;;;;;;;;;;;;;-144.86;100.00;65694.16;5030179;28;19972;-61
2023/07/02 02:02:43;;;;;;;;;;;;;;;-144.86;100.00;65694.16;5023512;28;19925;-61
2023/07/02 02:05:11;;;;;;;;;;;;;;;-144.86;100.00;65694.16;5012630;28;19972;-62
2023/07/02 02:07:40;;;;;;;;;;;;;;;-144.86;100.00;65694.16;5010417;28;20032;-61
2023/07/02 02:10:10;;;;;;;;;;;;;;;-144.86;100.00;65694.16;5012658;28;20401;-61
2023/07/02 02:12:38;;;;;;;;;;;;;;;-144.86;100.00;65694.16;5002821;28;20483;-61
2023/07/02 02:15:07;;;;;;;;;;;;;;;-144.86;100.00;65694.16;5003899;28;19929;-62
2023/07/02 02:17:35;;;;;;;;;;;;;;;-144.86;100.00;65694.16;5010111;28;19925;-62
2023/07/02 02:20:05;;;;;;;;;;;;;;;-144.86;100.00;65694.16;5004104;28;19930;-62
2023/07/02 02:22:33;;;;;;;;;;;;;;;-144.86;100.00;65694.16;5002870;28;20028;-62
2023/07/02 02:25:03;;;;;;;;;;;;;;;-144.86;100.00;65694.16;4999413;28;19926;-61
2023/07/02 02:27:32;;;;;;;;;;;;;;;-144.86;100.00;65694.16;5001703;28;20017;-62
2023/07/02 02:30:00;;;;;;;;;;;;;;;-144.86;100.00;65694.16;5008053;28;19926;-61
2023/07/02 02:32:28;;;;;;;;;;;;;;;-144.86;100.00;65694.16;5005735;28;20008;-61
2023/07/02 02:34:56;;;;;;;;;;;;;;;-144.86;100.00;65694.16;5010890;28;19929;-61
2023/07/02 02:37:24;;;;;;;;;;;;;;;-144.86;100.00;65694.16;5015826;28;20099;-61
2023/07/02 02:39:52;;;;;;;;;;;;;;;-144.86;100.00;65694.16;5008485;28;19975;-63
2023/07/02 02:42:20;;;;;;;;;;;;;;;-144.86;100.00;65694.16;5000858;28;19965;-61
2023/07/02 02:44:50;;;;;;;;;;;;;;;-144.86;100.00;65694.16;5019953;28;19941;-61
2023/07/02 02:47:17;;;;;;;;;;;;;;;-144.86;100.00;65694.16;5010888;28;20376;-61
2023/07/02 02:49:45;;;;;;;;;;;;;;;-144.86;100.00;65694.16;5003285;28;19926;-62
2023/07/02 02:52:14;;;;;;;;;;;;;;;-144.86;100.00;65694.16;5014535;28;20092;-62
2023/07/02 02:54:42;;;;;;;;;;;;;;;-144.86;100.00;65694.16;5015104;28;20433;-61
2023/07/02 02:57:10;;;;;;;;;;;;;;;-144.86;100.00;65694.16;5015253;28;20011;-61
2023/07/02 02:59:37;;;;;;;;;;;;;;;-144.86;100.00;65694.16;5008005;28;19965;-61
2023/07/02 03:02:07;;;;;;;;;;;;;;;-144.86;100.00;65694.16;5021364;28;19929;-62
2023/07/02 03:04:39;;;;;;;;;;;;;;;-144.86;100.00;65694.16;5012281;28;19968;-64
2023/07/02 03:07:08;;;;;;;;;;;;;;;-144.86;100.00;65694.16;5008957;28;19925;-61
2023/07/02 03:09:36;;;;;;;;;;;;;;;-144.86;100.00;65694.16;5008850;28;20337;-60
2023/07/02 03:12:04;;;;;;;;;;;;;;;-144.86;100.00;65694.16;5003713;28;19926;-61
2023/07/02 03:14:32;;;;;;;;;;;;;;;-144.86;100.00;65694.16;5009740;28;19925;-61
2023/07/02 03:17:00;;;;;;;;;;;;;;;-144.86;100.00;65694.16;5001143;28;20577;-61
2023/07/02 03:19:29;;;;;;;;;;;;;;;-144.86;100.00;65694.16;5000936;28;19932;-61
2023/07/02 03:21:57;;;;;;;;;;;;;;;-144.86;100.00;65694.16;5011390;28;20024;-61
2023/07/02 03:24:25;;;;;;;;;;;;;;;-144.86;100.00;65694.16;4999719;28;20272;-62
2023/07/02 03:26:52;;;;;;;;;;;;;;;-144.86;100.00;65694.16;5002672;28;19971;-60
2023/07/02 03:29:20;;;;;;;;;;;;;;;-144.86;100.00;65694.16;5011933;28;20027;-61
2023/07/02 03:31:48;;;;;;;;;;;;;;;-144.86;100.00;65694.16;5011444;28;20478;-60
2023/07/02 03:34:16;;;;;;;;;;;;;;;-144.86;100.00;65694.16;5005352;28;20020;-61
2023/07/02 03:36:48;;;;;;;;;;;;;;;-144.86;100.00;65694.16;5010879;28;19926;-61
2023/07/02 03:39:16;;;;;;;;;;;;;;;-144.86;100.00;65694.16;5009017;28;19930;-61
2023/07/02 03:41:44;;;;;;;;;;;;;;;-144.86;100.00;65694.16;5007812;28;19930;-61
2023/07/02 03:44:12;;;;;;;;;;;;;;;-144.86;100.00;65694.16;5012858;28;19953;-61
2023/07/02 03:46:39;;;;;;;;;;;;;;;-144.86;100.00;65694.16;5008903;28;19932;-61
2023/07/02 03:49:07;;;;;;;;;;;;;;;-144.86;100.00;65694.16;5008451;28;19926;-62
2023/07/02 03:51:35;;;;;;;;;;;;;;;-144.86;100.00;65694.16;5006612;28;19933;-62
2023/07/02 03:54:04;;;;;;;;;;;;;;;-144.86;100.00;65694.16;5008869;28;19971;-60
2023/07/02 03:56:32;;;;;;;;;;;;;;;-144.86;100.00;65694.16;4999905;28;19965;-61
2023/07/02 03:59:00;;;;;;;;;;;;;;;-144.86;100.00;65694.16;5008776;28;19965;-62
2023/07/02 04:01:27;;;;;;;;;;;;;;;-144.86;100.00;65694.16;4993554;28;19926;-62
2023/07/02 04:03:56;;;;;;;;;;;;;;;-144.86;100.00;65694.16;4993373;28;19925;-61
2023/07/02 04:06:24;;;;;;;;;;;;;;;-144.86;100.00;65694.16;5009963;28;20286;-61
2023/07/02 04:08:52;;;;;;;;;;;;;;;-144.86;100.00;65694.16;5007066;28;19926;-61
2023/07/02 04:11:21;;;;;;;;;;;;;;;-144.86;100.00;65694.16;5006886;28;19932;-61
2023/07/02 04:13:48;;;;;;;;;;;;;;;-144.86;100.00;65694.16;5011948;28;19926;-61
2023/07/02 04:16:16;;;;;;;;;;;;;;;-144.86;100.00;65694.16;5013417;28;20618;-60
2023/07/02 04:18:44;;;;;;;;;;;;;;;-144.86;100.00;65694.16;5009961;28;19929;-62
2023/07/02 04:21:12;;;;;;;;;;;;;;;-144.86;100.00;65694.16;5023133;28;19960;-61
2023/07/02 04:23:40;;;;;;;;;;;;;;;-144.86;100.00;65694.16;5020901;28;20332;-61
2023/07/02 04:26:07;;;;;;;;;;;;;;;-144.86;100.00;65694.16;5024752;28;19925;-62
2023/07/02 04:28:56;;;;;;;;;;;;;;;-144.86;100.00;65694.16;5015547;28;20307;-61
2023/07/02 04:31:24;;;;;;;;;;;;;;;-144.86;100.00;65694.16;5008831;28;19959;-61
2023/07/02 04:33:52;;;;;;;;;;;;;;;-144.86;100.00;65694.16;5020983;28;19979;-60
2023/07/02 04:36:20;;;;;;;;;;;;;;;-144.86;100.00;65694.16;5028546;28;19931;-61
2023/07/02 04:38:48;;;;;;;;;;;;;;;-144.86;100.00;65694.16;5012320;28;20020;-61
2023/07/02 04:41:16;;;;;;;;;;;;;;;-144.86;100.00;65694.16;5012261;28;19968;-62
2023/07/02 04:43:45;;;;;;;;;;;;;;;-144.86;100.00;65694.16;5027719;28;20374;-61
2023/07/02 04:46:14;;;;;;;;;;;;;;;-144.86;100.00;65694.16;5023457;28;19925;-62
2023/07/02 04:48:42;;;;;;;;;;;;;;;-144.86;100.00;65694.16;5029025;28;19932;-61
2023/07/02 04:51:10;;;;;;;;;;;;;;;-144.86;100.00;65694.16;5024419;28;19925;-61
2023/07/02 04:53:38;;;;;;;;;;;;;;;-144.86;100.00;65694.16;5004385;28;19980;-60
2023/07/02 04:56:06;;;;;;;;;;;;;;;-144.86;100.00;65694.16;5017637;28;20012;-60
2023/07/02 04:58:35;;;;;;;;;;;;;;;-144.86;100.00;65694.16;5013504;28;20489;-61
2023/07/02 05:01:04;;;;;;;;;;;;;;;-144.86;100.00;65694.16;5023431;28;20390;-62
2023/07/02 05:03:33;;;;;;;;;;;;;;;-144.86;100.00;65694.16;5011957;28;19929;-61
2023/07/02 05:06:01;;;;;;;;;;;;;;;-144.86;100.00;65694.16;5014593;28;19978;-63
2023/07/02 05:08:29;;;;;;;;;;;;;;;-144.86;100.00;65694.16;5029307;28;20575;-61
2023/07/02 05:10:56;;;;;;;;;;;;;;;-144.86;100.00;65694.16;5022535;28;19925;-60
2023/07/02 05:13:27;;;;;;;;;;;;;;;-144.86;100.00;65694.16;5025976;28;19944;-62
2023/07/02 05:15:55;;;;;;;;;;;;;;;-144.86;100.00;65694.16;5022760;28;19999;-61
2023/07/02 05:18:23;;;;;;;;;;;;;;;-144.86;100.00;65694.16;5022836;28;19975;-63
2023/07/02 05:20:52;;;;;;;;;;;;;;;-144.86;100.00;65694.16;5018720;28;19929;-61
2023/07/02 05:23:20;;;;;;;;;;;;;;;-144.86;100.00;65694.16;5025402;28;19979;-63
2023/07/02 05:25:47;;;;;;;;;;;;;;;-144.86;100.00;65694.16;5020516;28;19956;-63
2023/07/02 05:28:15;;;;;;;;;;;;;;;-144.86;100.00;65694.16;5025708;28;19956;-62
2023/07/02 05:30:43;;;;;;;;;;;;;;;-144.86;100.00;65694.16;5011112;28;19929;-63
2023/07/02 05:33:10;;;;;;;;;;;;;;;-144.86;100.00;65694.16;5018499;28;20624;-62
2023/07/02 05:35:38;;;;;;;;;;;;;;;-144.86;100.00;65694.16;5018316;28;20016;-63
2023/07/02 05:38:07;;;;;;;;;;;;;;;-144.86;100.00;65694.16;5021619;28;19929;-63
2023/07/02 05:40:35;;;;;;;;;;;;;;;-144.86;100.00;65694.16;5007491;28;19976;-63
2023/07/02 05:43:03;;;;;;;;;;;;;;;-144.86;100.00;65694.16;5023166;28;20020;-62
2023/07/02 05:45:31;;;;;;;;;;;;;;;-144.86;100.00;65694.16;5021921;28;19925;-62
2023/07/02 05:47:59;;;;;;;;;;;;;;;-144.86;100.00;65694.16;5027487;28;19980;-62
2023/07/02 05:50:27;;;;;;;;;;;;;;;-144.86;100.00;65694.16;5032106;28;19936;-63
2023/07/02 05:52:55;;;;;;;;;;;;;;;-144.86;100.00;65694.16;5017698;28;19925;-62
2023/07/02 05:55:24;;;;;;;;;;;;;;;-144.86;100.00;65694.16;5020873;28;20383;-64
2023/07/02 05:57:52;;;;;;;;;;;;;;;-144.86;100.00;65694.16;5033686;28;19933;-63
2023/07/02 06:00:20;;;;;;;;;;;;;;;-144.86;100.00;65694.16;5027079;28;19972;-62
2023/07/02 06:02:48;;;;;;;;;;;;;;;-144.86;100.00;65694.16;5029346;28;19936;-63
2023/07/02 06:05:16;;;;;;;;;;;;;;;-144.86;100.00;65694.16;5024743;28;19956;-62
2023/07/02 06:07:45;;;;;;;;;;;;;;;-144.86;100.00;65694.16;5025754;28;19925;-62
2023/07/02 06:10:12;;;;;;;;;;;;;;;-144.86;100.00;65694.16;5024823;28;19925;-63
2023/07/02 06:12:43;;;;;;;;;;;;;;;-144.86;100.00;65694.16;5020229;28;19957;-64
2023/07/02 06:15:11;;;;;;;;;;;;;;;-144.86;100.00;65694.16;5038428;28;19931;-62
2023/07/02 06:17:40;;;;;;;;;;;;;;;-144.86;100.00;65694.16;5003948;28;20216;-62
2023/07/02 06:20:09;;;;;;;;;;;;;;;-144.86;100.00;65694.16;5029569;28;20282;-62
2023/07/02 06:22:37;;;;;;;;;;;;;;;-144.86;100.00;65694.16;5028447;28;19987;-62
2023/07/02 06:25:05;;;;;;;;;;;;;;;-144.86;100.00;65694.16;5033094;28;19929;-62
2023/07/02 06:27:33;;;;;;;;;;;;;;;-144.86;100.00;65694.16;5030766;28;20007;-62
2023/07/02 06:30:02;;;;;;;;;;;;;;;-144.86;100.00;65694.16;5012656;28;19971;-62
2023/07/02 06:32:29;;;;;;;;;;;;;;;-144.86;100.00;65694.16;5023408;28;19929;-62
2023/07/02 06:35:00;;;;;;;;;;;;;;;-144.86;100.00;65694.16;5027751;28;19926;-62
2023/07/02 06:37:28;;;;;;;;;;;;;;;-144.86;100.00;65694.16;5032760;28;19979;-66
2023/07/02 06:39:56;;;;;;;;;;;;;;;-144.86;100.00;65694.16;5026238;28;20326;-63
2023/07/02 06:42:25;;;;;;;;;;;;;;;-144.86;100.00;65694.16;5009629;28;20342;-62
2023/07/02 06:44:52;;;;;;;;;;;;;;;-144.86;100.00;65694.16;5025773;28;19929;-63
2023/07/02 06:47:22;;;;;;;;;;;;;;;-144.86;100.00;65694.16;5026303;28;19929;-63
2023/07/02 06:49:49;;;;;;;;;;;;;;;-144.86;100.00;65694.16;5024984;28;20676;-62
2023/07/02 06:52:17;;;;;;;;;;;;;;;-144.86;100.00;65694.16;5017756;28;20044;-62
2023/07/02 06:54:45;;;;;;;;;;;;;;;-144.86;100.00;65694.16;5008963;28;20012;-64
2023/07/02 06:57:13;;;;;;;;;;;;;;;-144.86;100.00;65694.16;5026045;28;19925;-63
2023/07/02 06:59:41;;;;;;;;;;;;;;;-144.86;100.00;65694.16;5027415;28;19931;-63
2023/07/02 07:02:09;;;;;;;;;;;;;;;-144.86;100.00;65694.16;5020057;28;19925;-64
2023/07/02 07:04:38;;;;;;;;;;;;;;;-144.86;100.00;65694.16;5031198;28;19936;-63
2023/07/02 07:07:06;;;;;;;;;;;;;;;-144.86;100.00;65694.16;5020588;28;19932;-64
2023/07/02 07:09:34;;;;;;;;;;;;;;;-144.86;100.00;65694.16;5019468;28;19952;-63
2023/07/02 07:12:04;;;;;;;;;;;;;;;-144.86;100.00;65694.16;4999677;28;19926;-63
2023/07/02 07:14:32;;;;;;;;;;;;;;;-144.86;100.00;65694.16;4993408;28;19929;-63
2023/07/02 07:17:00;;;;;;;;;;;;;;;-144.86;100.00;65694.16;5009795;28;19933;-62
2023/07/02 07:19:29;;;;;;;;;;;;;;;-144.86;100.00;65694.16;4991375;28;19969;-62
2023/07/02 07:21:58;;;;;;;;;;;;;;;-144.86;100.00;65694.16;4993125;28;19933;-62
2023/07/02 07:24:26;;;;;;;;;;;;;;;-144.86;100.00;65694.16;5003206;28;20359;-63
2023/07/02 07:26:56;;;;;;;;;;;;;;;-144.86;100.00;65694.16;5006569;28;19925;-62
2023/07/02 07:29:24;;;;;;;;;;;;;;;-144.86;100.00;65694.16;5012334;28;19932;-63
2023/07/02 07:31:52;;;;;;;;;;;;;;;-144.86;100.00;65694.16;5008077;28;19952;-62
2023/07/02 07:34:22;;;;;;;;;;;;;;;-144.86;100.00;65694.16;5002280;28;19925;-63
2023/07/02 07:36:52;;;;;;;;;;;;;;;-144.86;100.00;65694.16;5007798;28;19933;-66
2023/07/02 07:39:21;;;;;;;;;;;;;;;-144.86;100.00;65694.16;5008696;28;20012;-63
2023/07/02 07:41:49;;;;;;;;;;;;;;;-144.86;100.00;65694.16;5009276;28;19930;-64
2023/07/02 07:44:17;;;;;;;;;;;;;;;-144.86;100.00;65694.16;5009476;28;19944;-66
2023/07/02 07:46:45;;;;;;;;;;;;;;;-144.86;100.00;65694.16;5006966;28;19926;-65
2023/07/02 07:49:13;;;;;;;;;;;;;;;-144.86;100.00;65694.16;4993018;28;19925;-63
2023/07/02 07:51:41;;;;;;;;;;;;;;;-144.86;100.00;65694.16;5006355;28;20036;-64
2023/07/02 07:54:09;;;;;;;;;;;;;;;-144.86;100.00;65694.16;5008932;28;19960;-64
2023/07/02 07:56:40;;;;;;;;;;;;;;;-144.86;100.00;65694.16;5005831;28;19930;-64
2023/07/02 07:59:08;;;;;;;;;;;;;;;-144.86;100.00;65694.16;4990665;28;20363;-65
2023/07/02 08:01:36;;;;;;;;;;;;;;;-144.86;100.00;65694.16;5009107;28;19948;-64
2023/07/02 08:04:04;;;;;;;;;;;;;;;-144.86;100.00;65694.16;5008190;28;20012;-63
2023/07/02 08:06:31;;;;;;;;;;;;;;;-144.86;100.00;65694.16;5008031;28;19925;-63
2023/07/02 08:09:00;;;;;;;;;;;;;;;-144.86;100.00;65694.16;5007773;28;19929;-64
2023/07/02 08:11:28;;;;;;;;;;;;;;;-144.86;100.00;65694.16;5010628;28;19929;-63
2023/07/02 08:14:00;;;;;;;;;;;;;;;-144.86;100.00;65694.16;5025673;28;19929;-64
2023/07/02 08:16:28;;;;;;;;;;;;;;;-144.86;100.00;65694.16;5022429;28;19987;-63
2023/07/02 08:18:56;;;;;;;;;;;;;;;-144.86;100.00;65694.16;5010106;28;19968;-63
2023/07/02 08:21:24;;;;;;;;;;;;;;;-144.86;100.00;65694.16;5026601;28;20275;-63
2023/07/02 08:23:52;;;;;;;;;;;;;;;-144.86;100.00;65694.16;5024185;28;19925;-64
2023/07/02 08:26:20;;;;;;;;;;;;;;;-144.86;100.00;65694.16;5026486;28;19936;-63
2023/07/02 08:28:47;;;;;;;;;;;;;;;-144.86;100.00;65694.16;5010961;28;20394;-64
2023/07/02 08:31:17;;;;;;;;;;;;;;;-144.86;100.00;65694.16;5029399;28;19956;-64
2023/07/02 08:33:47;;;;;;;;;;;;;;;-144.86;100.00;65694.16;5021203;28;19925;-63
2023/07/02 08:36:15;;;;;;;;;;;;;;;-144.86;100.00;65694.16;5024292;28;20343;-64
2023/07/02 08:38:43;;;;;;;;;;;;;;;-144.86;100.00;65694.16;5025794;28;20505;-63
2023/07/02 08:41:10;;;;;;;;;;;;;;;-144.86;100.00;65694.16;5024125;28;19979;-63
2023/07/02 08:43:38;;;;;;;;;;;;;;;-144.86;100.00;65694.16;5024960;28;20044;-64
2023/07/02 08:46:06;;;;;;;;;;;;;;;-144.86;100.00;65694.16;5025494;28;19936;-63
2023/07/02 08:48:36;;;;;;;;;;;;;;;-144.86;100.00;65694.16;5023884;28;19925;-63
2023/07/02 08:51:04;;;;;;;;;;;;;;;-144.86;100.00;65694.16;5024568;28;19960;-64
2023/07/02 08:53:34;;;;;;;;;;;;;;;-144.86;100.00;65694.16;5025002;28;20036;-63
2023/07/02 08:56:04;;;;;;;;;;;;;;;-144.86;100.00;65694.16;5021531;28;19934;-64
2023/07/02 08:58:32;;;;;;;;;;;;;;;-144.86;100.00;65694.16;5025756;28;20374;-64
2023/07/02 09:01:09;;;;;;;;;;;;;;;-144.86;100.00;65694.16;5025171;28;19930;-64
2023/07/02 09:03:39;;;;;;;;;;;;;;;-144.86;100.00;65694.16;5027204;28;20349;-62
2023/07/02 09:06:07;;;;;;;;;;;;;;;-144.86;100.00;65694.16;5021243;28;20391;-63
2023/07/02 09:08:35;;;;;;;;;;;;;;;-144.86;100.00;65694.16;5025427;28;19940;-62
2023/07/02 09:11:06;;;;;;;;;;;;;;;-144.86;100.00;65694.16;5005290;28;20031;-63
2023/07/02 09:13:42;;;;;;;;;;;;;;;-144.86;100.00;65694.16;5023099;28;19925;-63
2023/07/02 09:16:10;;;;;;;;;;;;;;;-144.86;100.00;65694.16;5023999;28;19959;-63
2023/07/02 09:18:39;;;;;;;;;;;;;;;-144.86;100.00;65694.16;5025692;28;19929;-63
2023/07/02 09:21:07;;;;;;;;;;;;;;;-144.86;100.00;65694.16;5024712;28;20007;-65
2023/07/02 09:23:36;;;;;;;;;;;;;;;-144.86;100.00;65694.16;5023247;28;19930;-64
2023/07/02 09:26:04;;;;;;;;;;;;;;;-144.86;100.00;65694.16;5012462;28;19995;-65
2023/07/02 09:28:32;;;;;;;;;;;;;;;-144.86;100.00;65694.16;5013948;28;19925;-64
2023/07/02 09:30:59;;;;;;;;;;;;;;;-144.86;100.00;65694.16;5020253;28;20008;-64
2023/07/02 09:33:28;;;;;;;;;;;;;;;-144.86;100.00;65694.16;5015685;28;19969;-64
2023/07/02 09:35:57;;;;;;;;;;;;;;;-144.86;100.00;65694.16;5008928;28;19925;-64
2023/07/02 09:38:25;;;;;;;;;;;;;;;-144.86;100.00;65694.16;5020499;28;19926;-63
2023/07/02 09:40:53;;;;;;;;;;;;;;;-144.86;100.00;65694.16;5023596;28;20379;-64
2023/07/02 09:43:22;;;;;;;;;;;;;;;-144.86;100.00;65694.16;5022181;28;19963;-63
2023/07/02 09:45:50;;;;;;;;;;;;;;;-144.86;100.00;65694.16;5024297;28;19932;-64
2023/07/02 09:48:19;;;;;;;;;;;;;;;-144.86;100.00;65694.16;5015167;28;19925;-62
2023/07/02 09:50:48;;;;;;;;;;;;;;;-144.86;100.00;65694.16;5023177;28;20501;-62
2023/07/02 09:53:18;;;;;;;;;;;;;;;-144.86;100.00;65694.16;5009207;28;19936;-63
2023/07/02 09:55:46;;;;;;;;;;;;;;;-144.86;100.00;65694.16;5019637;28;20320;-65
2023/07/02 09:58:14;;;;;;;;;;;;;;;-144.86;100.00;65694.16;5026784;28;19929;-63
2023/07/02 10:00:42;;;;;;;;;;;;;;;-144.86;100.00;65694.16;5016580;28;19984;-64
2023/07/02 10:03:10;;;;;;;;;;;;;;;-144.86;100.00;65694.16;5012800;28;19965;-63
2023/07/02 10:05:39;;;;;;;;;;;;;;;-144.86;100.00;65694.16;4995363;28;19980;-64
2023/07/02 10:08:15;;;;;;;;;;;;;;;-144.86;100.00;65694.16;5024417;28;19947;-64
2023/07/02 10:10:44;;;;;;;;;;;;;;;-144.86;100.00;65694.16;5013423;28;19997;-64
2023/07/02 10:13:12;;;;;;;;;;;;;;;-144.86;100.00;65694.16;5012581;28;19952;-64
2023/07/02 10:15:40;;;;;;;;;;;;;;;-144.86;100.00;65694.16;5027309;28;20497;-64
2023/07/02 10:18:07;;;;;;;;;;;;;;;-144.86;100.00;65694.16;5006844;28;19925;-64
2023/07/02 10:20:36;;;;;;;;;;;;;;;-144.86;100.00;65694.16;5008008;28;19971;-64
2023/07/02 10:23:04;;;;;;;;;;;;;;;-144.86;100.00;65694.16;5019185;28;19994;-64
2023/07/02 10:25:33;;;;;;;;;;;;;;;-144.86;100.00;65694.16;5020094;28;19936;-64
2023/07/02 10:28:14;;;;;;;;;;;;;;;-144.86;100.00;65694.16;5003526;28;20024;-64
2023/07/02 10:30:42;;;;;;;;;;;;;;;-144.86;100.00;65694.16;5005860;28;20354;-63
2023/07/02 10:33:10;;;;;;;;;;;;;;;-144.86;100.00;65694.16;5010559;28;20027;-62
2023/07/02 10:35:39;;;;;;;;;;;;;;;-144.86;100.00;65694.16;5027453;28;19929;-64
2023/07/02 10:38:07;;;;;;;;;;;;;;;-144.86;100.00;65694.16;5014525;28;20738;-66
2023/07/02 10:40:35;;;;;;;;;;;;;;;-144.86;100.00;65694.16;5018826;28;19925;-63
2023/07/02 10:43:04;;;;;;;;;;;;;;;-144.86;100.00;65694.16;5019369;28;19925;-62
2023/07/02 10:45:32;;;;;;;;;;;;;;;-144.86;100.00;65694.16;5026930;28;19929;-62
2023/07/02 10:48:02;;;;;;;;;;;;;;;-144.86;100.00;65694.16;5028877;28;19925;-62
2023/07/02 10:50:31;;;;;;;;;;;;;;;-144.86;100.00;65694.16;5025451;28;19926;-62
2023/07/02 10:52:58;;;;;;;;;;;;;;;-144.86;100.00;65694.16;5023805;28;19929;-63
2023/07/02 10:55:26;;;;;;;;;;;;;;;-144.86;100.00;65694.16;5032686;28;20432;-62
2023/07/02 10:58:05;;;;;;;;;;;;;;;-144.86;100.00;65694.16;5026201;28;19925;-62
2023/07/02 11:04:27;;;;;;;;;;;;;;;-144.86;100.00;65694.16;5126014;23;20472;-77
2023/07/02 11:06:55;;;;;;;;;;;;;;;-144.86;100.00;65694.16;5072702;28;20468;-75
2023/07/02 11:09:24;;;;;;;;;;;;;;;-144.86;100.00;65694.16;5059336;28;20011;-77
2023/07/02 11:11:53;;;;;;;;;;;;;;;-144.86;100.00;65694.16;5069244;28;20031;-77
2023/07/02 11:14:29;;;;;;;;;;;;;;;-144.86;100.00;65694.16;5075128;28;19930;-77
2023/07/02 11:16:57;;;;;;;;;;;;;;;-144.86;100.00;65694.16;5073279;28;19936;-78
2023/07/02 11:19:25;;;;;;;;;;;;;;;-144.86;100.00;65694.16;5055428;28;19929;-76
2023/07/02 11:21:55;;;;;;;;;;;;;;;-144.86;100.00;65694.16;5072531;28;19928;-76
2023/07/02 11:24:27;;;;;;;;;;;;;;;-144.86;100.00;65694.16;5071325;28;19978;-76
2023/07/02 11:26:55;;;;;;;;;;;;;;;-144.86;100.00;65694.16;5074281;28;19928;-76
2023/07/02 11:29:23;;;;;;;;;;;;;;;-144.86;100.00;65694.16;5073541;28;19925;-73
2023/07/02 11:31:52;;;;;;;;;;;;;;;-144.86;100.00;65694.16;5073737;28;19931;-74
2023/07/02 11:34:21;;;;;;;;;;;;;;;-144.86;100.00;65694.16;5071534;28;19925;-74
2023/07/02 11:36:53;;;;;;;;;;;;;;;-144.86;100.00;65694.16;5074493;28;19960;-77
2023/07/02 11:39:21;;;;;;;;;;;;;;;-144.86;100.00;65694.16;5079578;28;19924;-74
2023/07/02 11:41:56;;;;;;;;;;;;;;;-144.86;100.00;65694.16;5074878;28;20298;-76
2023/07/02 11:44:24;;;;;;;;;;;;;;;-144.86;100.00;65694.16;5082966;22;19975;-64
2023/07/02 11:46:53;;;;;;;;;;;;;;;-144.86;100.00;65694.16;5085639;28;20372;-64
2023/07/02 11:49:21;;;;;;;;;;;;;;;-144.86;100.00;65694.16;5083985;28;20044;-64
2023/07/02 11:51:49;;;;;;;;;;;;;;;-144.86;100.00;65694.16;5091441;28;19928;-63
2023/07/02 11:54:18;;;;;;;;;;;;;;;-144.86;100.00;65694.16;5090975;28;19928;-63
2023/07/02 11:56:46;;;;;;;;;;;;;;;-144.86;100.00;65694.16;5088574;28;19924;-63
2023/07/02 11:59:14;;;;;;;;;;;;;;;-144.86;100.00;65694.16;5073181;28;20483;-64
2023/07/02 12:01:42;;;;;;;;;;;;;;;-144.86;100.00;65694.16;5091466;28;20471;-64
2023/07/02 12:04:12;;;;;;;;;;;;;;;-144.86;100.00;65694.16;5071877;28;20018;-64
2023/07/02 12:06:41;;;;;;;;;;;;;;;-144.86;100.00;65694.16;5077921;28;19931;-64
2023/07/02 12:09:09;;;;;;;;;;;;;;;-144.86;100.00;65694.16;5091783;28;19946;-64
2023/07/02 12:11:37;;;;;;;;;;;;;;;-144.86;100.00;65694.16;5066030;28;19924;-64
2023/07/02 12:14:05;;;;;;;;;;;;;;;-144.86;100.00;65694.16;5088959;28;19928;-64
2023/07/02 12:16:32;;;;;;;;;;;;;;;-144.86;100.00;65694.16;5083189;28;19924;-65
2023/07/02 12:19:00;;;;;;;;;;;;;;;-144.86;100.00;65694.16;5081149;28;20362;-64
2023/07/02 12:21:29;;;;;;;;;;;;;;;-144.86;100.00;65694.16;5079465;28;19982;-64
2023/07/02 12:23:57;;;;;;;;;;;;;;;-144.86;100.00;65694.16;5072056;28;19973;-67
2023/07/02 12:26:25;;;;;;;;;;;;;;;-144.86;100.00;65694.16;5086832;28;19991;-62
2023/07/02 12:28:53;;;;;;;;;;;;;;;-144.86;100.00;65694.16;5086915;28;19924;-64